sensor_id;sensor_type;location;lat;lon;timestamp;temperature;humidity
3528;DHT22;1778;47.966;7.854;2024-02-21T00:00:45;5.40;99.90
3528;DHT22;1778;47.966;7.854;2024-02-21T00:01:47;5.40;99.90
3528;DHT22;1778;47.966;7.854;2024-02-21T00:02:48;5.40;99.90
3528;DHT22;1778;47.966;7.854;2024-02-21T00:03:50;5.40;99.90
3528;DHT22;1778;47.966;7.854;2024-02-21T00:04:51;5.40;99.90
3528;DHT22;1778;47.966;7.854;2024-02-21T00:05:53;5.40;99.90
3528;DHT22;1778;47.966;7.854;2024-02-21T00:06:54;5.40;99.90
3528;DHT22;1778;47.966;7.854;2024-02-21T00:07:56;5.50;99.90
3528;DHT22;1778;47.966;7.854;2024-02-21T00:08:57;5.50;99.90
3528;DHT22;1778;47.966;7.854;2024-02-21T00:09:59;5.40;99.90
3528;DHT22;1778;47.966;7.854;2024-02-21T00:11:01;5.40;99.90
3528;DHT22;1778;47.966;7.854;2024-02-21T00:12:03;5.50;99.90
3528;DHT22;1778;47.966;7.854;2024-02-21T00:13:08;5.50;99.90
3528;DHT22;1778;47.966;7.854;2024-02-21T00:14:10;5.50;99.90
3528;DHT22;1778;47.966;7.854;2024-02-21T00:15:11;5.60;99.90
3528;DHT22;1778;47.966;7.854;2024-02-21T00:16:13;5.60;99.90
3528;DHT22;1778;47.966;7.854;2024-02-21T00:17:17;5.60;99.90
3528;DHT22;1778;47.966;7.854;2024-02-21T00:18:18;5.60;99.90
3528;DHT22;1778;47.966;7.854;2024-02-21T00:19:19;5.60;99.90
3528;DHT22;1778;47.966;7.854;2024-02-21T00:20:21;5.60;99.90
3528;DHT22;1778;47.966;7.854;2024-02-21T00:21:23;5.60;99.90
3528;DHT22;1778;47.966;7.854;2024-02-21T00:22:24;5.60;99.90
3528;DHT22;1778;47.966;7.854;2024-02-21T00:23:29;5.50;99.90
3528;DHT22;1778;47.966;7.854;2024-02-21T00:24:30;5.50;99.90
3528;DHT22;1778;47.966;7.854;2024-02-21T00:25:32;5.50;99.90
3528;DHT22;1778;47.966;7.854;2024-02-21T00:26:34;5.50;99.90
3528;DHT22;1778;47.966;7.854;2024-02-21T00:27:35;5.50;99.90
3528;DHT22;1778;47.966;7.854;2024-02-21T00:28:37;5.50;99.90
3528;DHT22;1778;47.966;7.854;2024-02-21T00:29:38;5.50;99.90
3528;DHT22;1778;47.966;7.854;2024-02-21T00:30:39;5.50;99.90
3528;DHT22;1778;47.966;7.854;2024-02-21T00:31:41;5.40;99.90
3528;DHT22;1778;47.966;7.854;2024-02-21T00:32:43;5.50;99.90
3528;DHT22;1778;47.966;7.854;2024-02-21T00:33:50;5.50;99.90
3528;DHT22;1778;47.966;7.854;2024-02-21T00:35:10;5.50;99.90
3528;DHT22;1778;47.966;7.854;2024-02-21T00:36:12;5.50;99.90
3528;DHT22;1778;47.966;7.854;2024-02-21T00:37:13;5.50;99.90
3528;DHT22;1778;47.966;7.854;2024-02-21T00:38:15;5.50;99.90
3528;DHT22;1778;47.966;7.854;2024-02-21T00:39:17;5.50;99.90
3528;DHT22;1778;47.966;7.854;2024-02-21T00:40:18;5.50;99.90
3528;DHT22;1778;47.966;7.854;2024-02-21T00:41:21;5.60;99.90
3528;DHT22;1778;47.966;7.854;2024-02-21T00:42:22;5.60;99.90
3528;DHT22;1778;47.966;7.854;2024-02-21T00:43:24;5.70;99.90
3528;DHT22;1778;47.966;7.854;2024-02-21T00:44:26;5.70;99.90
3528;DHT22;1778;47.966;7.854;2024-02-21T00:45:27;5.70;99.90
3528;DHT22;1778;47.966;7.854;2024-02-21T00:46:29;5.60;99.90
3528;DHT22;1778;47.966;7.854;2024-02-21T00:47:30;5.70;99.90
3528;DHT22;1778;47.966;7.854;2024-02-21T00:48:32;5.70;99.90
3528;DHT22;1778;47.966;7.854;2024-02-21T00:49:33;5.80;99.90
3528;DHT22;1778;47.966;7.854;2024-02-21T00:50:35;5.70;99.90
3528;DHT22;1778;47.966;7.854;2024-02-21T00:51:38;5.70;99.90
3528;DHT22;1778;47.966;7.854;2024-02-21T00:52:39;5.80;99.90
3528;DHT22;1778;47.966;7.854;2024-02-21T00:53:42;5.80;99.90
3528;DHT22;1778;47.966;7.854;2024-02-21T00:54:44;5.70;99.90
3528;DHT22;1778;47.966;7.854;2024-02-21T00:55:54;5.70;99.90
3528;DHT22;1778;47.966;7.854;2024-02-21T00:56:58;5.60;99.90
3528;DHT22;1778;47.966;7.854;2024-02-21T00:57:59;5.70;99.90
3528;DHT22;1778;47.966;7.854;2024-02-21T00:59:00;5.70;99.90
3528;DHT22;1778;47.966;7.854;2024-02-21T01:00:03;5.70;99.90
3528;DHT22;1778;47.966;7.854;2024-02-21T01:01:05;5.70;99.90
3528;DHT22;1778;47.966;7.854;2024-02-21T01:02:06;5.70;99.90
3528;DHT22;1778;47.966;7.854;2024-02-21T01:03:08;5.70;99.90
3528;DHT22;1778;47.966;7.854;2024-02-21T01:04:09;5.70;99.90
3528;DHT22;1778;47.966;7.854;2024-02-21T01:05:13;5.70;99.90
3528;DHT22;1778;47.966;7.854;2024-02-21T01:06:14;5.70;99.90
3528;DHT22;1778;47.966;7.854;2024-02-21T01:07:16;5.80;99.90
3528;DHT22;1778;47.966;7.854;2024-02-21T01:08:18;5.80;99.90
3528;DHT22;1778;47.966;7.854;2024-02-21T01:09:19;5.70;99.90
3528;DHT22;1778;47.966;7.854;2024-02-21T01:10:21;5.80;99.90
3528;DHT22;1778;47.966;7.854;2024-02-21T01:11:22;5.90;99.90
3528;DHT22;1778;47.966;7.854;2024-02-21T01:12:24;5.80;99.90
3528;DHT22;1778;47.966;7.854;2024-02-21T01:13:26;5.80;99.90
3528;DHT22;1778;47.966;7.854;2024-02-21T01:14:27;5.90;99.90
3528;DHT22;1778;47.966;7.854;2024-02-21T01:15:29;5.80;99.90
3528;DHT22;1778;47.966;7.854;2024-02-21T01:16:30;5.90;99.90
3528;DHT22;1778;47.966;7.854;2024-02-21T01:17:32;5.90;99.90
3528;DHT22;1778;47.966;7.854;2024-02-21T01:18:34;5.80;99.90
3528;DHT22;1778;47.966;7.854;2024-02-21T01:19:35;5.90;99.90
3528;DHT22;1778;47.966;7.854;2024-02-21T01:20:37;5.80;99.90
3528;DHT22;1778;47.966;7.854;2024-02-21T01:21:38;5.80;99.90
3528;DHT22;1778;47.966;7.854;2024-02-21T01:22:40;5.90;99.90
3528;DHT22;1778;47.966;7.854;2024-02-21T01:23:41;5.90;99.90
3528;DHT22;1778;47.966;7.854;2024-02-21T01:24:43;5.90;99.90
3528;DHT22;1778;47.966;7.854;2024-02-21T01:25:44;5.90;99.90
3528;DHT22;1778;47.966;7.854;2024-02-21T01:26:46;6.00;99.90
3528;DHT22;1778;47.966;7.854;2024-02-21T01:27:48;6.00;99.90
3528;DHT22;1778;47.966;7.854;2024-02-21T01:28:49;6.00;99.90
3528;DHT22;1778;47.966;7.854;2024-02-21T01:29:51;6.00;99.90
3528;DHT22;1778;47.966;7.854;2024-02-21T01:30:52;5.90;99.90
3528;DHT22;1778;47.966;7.854;2024-02-21T01:31:54;5.90;99.90
3528;DHT22;1778;47.966;7.854;2024-02-21T01:32:56;5.90;99.90
3528;DHT22;1778;47.966;7.854;2024-02-21T01:33:57;6.00;99.90
3528;DHT22;1778;47.966;7.854;2024-02-21T01:34:59;6.00;99.90
3528;DHT22;1778;47.966;7.854;2024-02-21T01:36:02;6.00;99.90
3528;DHT22;1778;47.966;7.854;2024-02-21T01:37:04;6.00;99.90
3528;DHT22;1778;47.966;7.854;2024-02-21T01:38:08;5.90;99.90
3528;DHT22;1778;47.966;7.854;2024-02-21T01:39:09;5.90;99.90
3528;DHT22;1778;47.966;7.854;2024-02-21T01:40:11;5.90;99.90
3528;DHT22;1778;47.966;7.854;2024-02-21T01:41:13;6.00;99.90
3528;DHT22;1778;47.966;7.854;2024-02-21T01:42:14;6.10;99.90
3528;DHT22;1778;47.966;7.854;2024-02-21T01:43:20;6.00;99.90
3528;DHT22;1778;47.966;7.854;2024-02-21T01:44:21;6.00;99.90
3528;DHT22;1778;47.966;7.854;2024-02-21T01:45:23;6.00;99.90
3528;DHT22;1778;47.966;7.854;2024-02-21T01:46:24;6.00;99.90
3528;DHT22;1778;47.966;7.854;2024-02-21T01:47:31;6.00;99.90
3528;DHT22;1778;47.966;7.854;2024-02-21T01:48:33;5.90;99.90
3528;DHT22;1778;47.966;7.854;2024-02-21T01:49:34;6.00;99.90
3528;DHT22;1778;47.966;7.854;2024-02-21T01:50:36;6.00;99.90
3528;DHT22;1778;47.966;7.854;2024-02-21T01:51:38;6.00;99.90
3528;DHT22;1778;47.966;7.854;2024-02-21T01:52:40;6.00;99.90
3528;DHT22;1778;47.966;7.854;2024-02-21T01:53:43;6.00;99.90
3528;DHT22;1778;47.966;7.854;2024-02-21T01:54:46;6.00;99.90
3528;DHT22;1778;47.966;7.854;2024-02-21T01:55:49;5.90;99.90
3528;DHT22;1778;47.966;7.854;2024-02-21T01:56:50;5.90;99.90
3528;DHT22;1778;47.966;7.854;2024-02-21T01:57:52;6.00;99.90
3528;DHT22;1778;47.966;7.854;2024-02-21T01:58:54;6.00;99.90
3528;DHT22;1778;47.966;7.854;2024-02-21T01:59:56;6.00;99.90
3528;DHT22;1778;47.966;7.854;2024-02-21T02:00:59;6.00;99.90
3528;DHT22;1778;47.966;7.854;2024-02-21T02:02:00;6.00;99.90
3528;DHT22;1778;47.966;7.854;2024-02-21T02:03:03;6.00;99.90
3528;DHT22;1778;47.966;7.854;2024-02-21T02:04:06;6.10;99.90
3528;DHT22;1778;47.966;7.854;2024-02-21T02:05:08;6.10;99.90
3528;DHT22;1778;47.966;7.854;2024-02-21T02:06:09;6.10;99.90
3528;DHT22;1778;47.966;7.854;2024-02-21T02:07:10;6.00;99.90
3528;DHT22;1778;47.966;7.854;2024-02-21T02:08:14;6.00;99.90
3528;DHT22;1778;47.966;7.854;2024-02-21T02:09:15;5.90;99.90
3528;DHT22;1778;47.966;7.854;2024-02-21T02:10:17;5.90;99.90
3528;DHT22;1778;47.966;7.854;2024-02-21T02:11:18;5.90;99.90
3528;DHT22;1778;47.966;7.854;2024-02-21T02:12:20;5.90;99.90
3528;DHT22;1778;47.966;7.854;2024-02-21T02:13:22;5.90;99.90
3528;DHT22;1778;47.966;7.854;2024-02-21T02:14:23;5.90;99.90
3528;DHT22;1778;47.966;7.854;2024-02-21T02:15:24;5.90;99.90
3528;DHT22;1778;47.966;7.854;2024-02-21T02:16:26;5.90;99.90
3528;DHT22;1778;47.966;7.854;2024-02-21T02:17:27;6.00;99.90
3528;DHT22;1778;47.966;7.854;2024-02-21T02:18:29;6.00;99.90
3528;DHT22;1778;47.966;7.854;2024-02-21T02:19:31;6.00;99.90
3528;DHT22;1778;47.966;7.854;2024-02-21T02:20:33;6.00;99.90
3528;DHT22;1778;47.966;7.854;2024-02-21T02:21:39;6.00;99.90
3528;DHT22;1778;47.966;7.854;2024-02-21T02:22:43;6.00;99.90
3528;DHT22;1778;47.966;7.854;2024-02-21T02:23:47;5.90;99.90
3528;DHT22;1778;47.966;7.854;2024-02-21T02:24:49;5.90;99.90
3528;DHT22;1778;47.966;7.854;2024-02-21T02:25:51;5.90;99.90
3528;DHT22;1778;47.966;7.854;2024-02-21T02:26:53;5.90;99.90
3528;DHT22;1778;47.966;7.854;2024-02-21T02:27:55;5.90;99.90
3528;DHT22;1778;47.966;7.854;2024-02-21T02:28:56;5.90;99.90
3528;DHT22;1778;47.966;7.854;2024-02-21T02:29:57;5.90;99.90
3528;DHT22;1778;47.966;7.854;2024-02-21T02:30:59;5.90;99.90
3528;DHT22;1778;47.966;7.854;2024-02-21T02:32:00;5.90;99.90
3528;DHT22;1778;47.966;7.854;2024-02-21T02:33:03;5.90;99.90
3528;DHT22;1778;47.966;7.854;2024-02-21T02:34:05;5.80;99.90
3528;DHT22;1778;47.966;7.854;2024-02-21T02:35:06;5.90;99.90
3528;DHT22;1778;47.966;7.854;2024-02-21T02:36:08;6.00;99.90
3528;DHT22;1778;47.966;7.854;2024-02-21T02:37:09;6.00;99.90
3528;DHT22;1778;47.966;7.854;2024-02-21T02:38:11;5.90;99.90
3528;DHT22;1778;47.966;7.854;2024-02-21T02:39:14;5.90;99.90
3528;DHT22;1778;47.966;7.854;2024-02-21T02:40:15;5.80;99.90
3528;DHT22;1778;47.966;7.854;2024-02-21T02:41:18;5.80;99.90
3528;DHT22;1778;47.966;7.854;2024-02-21T02:42:20;5.80;99.90
3528;DHT22;1778;47.966;7.854;2024-02-21T02:43:21;5.80;99.90
3528;DHT22;1778;47.966;7.854;2024-02-21T02:44:23;5.80;99.90
3528;DHT22;1778;47.966;7.854;2024-02-21T02:45:25;5.80;99.90
3528;DHT22;1778;47.966;7.854;2024-02-21T02:46:27;5.80;99.90
3528;DHT22;1778;47.966;7.854;2024-02-21T02:47:29;5.80;99.90
3528;DHT22;1778;47.966;7.854;2024-02-21T02:48:31;5.80;99.90
3528;DHT22;1778;47.966;7.854;2024-02-21T02:49:32;5.80;99.90
3528;DHT22;1778;47.966;7.854;2024-02-21T02:50:34;5.80;99.90
3528;DHT22;1778;47.966;7.854;2024-02-21T02:51:35;5.80;99.90
3528;DHT22;1778;47.966;7.854;2024-02-21T02:52:37;5.80;99.90
3528;DHT22;1778;47.966;7.854;2024-02-21T02:53:39;5.80;99.90
3528;DHT22;1778;47.966;7.854;2024-02-21T02:54:40;5.70;99.90
3528;DHT22;1778;47.966;7.854;2024-02-21T02:55:42;5.70;99.90
3528;DHT22;1778;47.966;7.854;2024-02-21T02:56:43;5.70;99.90
3528;DHT22;1778;47.966;7.854;2024-02-21T02:57:45;5.70;99.90
3528;DHT22;1778;47.966;7.854;2024-02-21T02:58:47;5.80;99.90
3528;DHT22;1778;47.966;7.854;2024-02-21T02:59:49;5.80;99.90
3528;DHT22;1778;47.966;7.854;2024-02-21T03:00:52;5.80;99.90
3528;DHT22;1778;47.966;7.854;2024-02-21T03:01:53;5.80;99.90
3528;DHT22;1778;47.966;7.854;2024-02-21T03:02:54;5.80;99.90
3528;DHT22;1778;47.966;7.854;2024-02-21T03:03:56;5.80;99.90
3528;DHT22;1778;47.966;7.854;2024-02-21T03:04:57;5.90;99.90
3528;DHT22;1778;47.966;7.854;2024-02-21T03:05:58;5.90;99.90
3528;DHT22;1778;47.966;7.854;2024-02-21T03:07:00;5.90;99.90
3528;DHT22;1778;47.966;7.854;2024-02-21T03:08:01;5.90;99.90
3528;DHT22;1778;47.966;7.854;2024-02-21T03:09:03;5.90;99.90
3528;DHT22;1778;47.966;7.854;2024-02-21T03:10:10;5.80;99.90
3528;DHT22;1778;47.966;7.854;2024-02-21T03:11:12;5.80;99.90
3528;DHT22;1778;47.966;7.854;2024-02-21T03:12:14;5.80;99.90
3528;DHT22;1778;47.966;7.854;2024-02-21T03:13:20;5.80;99.90
3528;DHT22;1778;47.966;7.854;2024-02-21T03:14:21;5.80;99.90
3528;DHT22;1778;47.966;7.854;2024-02-21T03:15:23;5.80;99.90
3528;DHT22;1778;47.966;7.854;2024-02-21T03:16:24;5.70;99.90
3528;DHT22;1778;47.966;7.854;2024-02-21T03:17:27;5.70;99.90
3528;DHT22;1778;47.966;7.854;2024-02-21T03:18:29;5.70;99.90
3528;DHT22;1778;47.966;7.854;2024-02-21T03:19:31;5.80;99.90
3528;DHT22;1778;47.966;7.854;2024-02-21T03:20:33;5.80;99.90
3528;DHT22;1778;47.966;7.854;2024-02-21T03:21:35;5.80;99.90
3528;DHT22;1778;47.966;7.854;2024-02-21T03:22:39;5.70;99.90
3528;DHT22;1778;47.966;7.854;2024-02-21T03:23:42;5.70;99.90
3528;DHT22;1778;47.966;7.854;2024-02-21T03:24:44;5.80;99.90
3528;DHT22;1778;47.966;7.854;2024-02-21T03:25:46;5.70;99.90
3528;DHT22;1778;47.966;7.854;2024-02-21T03:26:50;5.70;99.90
3528;DHT22;1778;47.966;7.854;2024-02-21T03:27:51;5.70;99.90
3528;DHT22;1778;47.966;7.854;2024-02-21T03:28:53;5.70;99.90
3528;DHT22;1778;47.966;7.854;2024-02-21T03:29:54;5.70;99.90
3528;DHT22;1778;47.966;7.854;2024-02-21T03:30:56;5.60;99.90
3528;DHT22;1778;47.966;7.854;2024-02-21T03:31:57;5.60;99.90
3528;DHT22;1778;47.966;7.854;2024-02-21T03:32:58;5.60;99.90
3528;DHT22;1778;47.966;7.854;2024-02-21T03:34:00;5.60;99.90
3528;DHT22;1778;47.966;7.854;2024-02-21T03:35:01;5.60;99.90
3528;DHT22;1778;47.966;7.854;2024-02-21T03:36:04;5.50;99.90
3528;DHT22;1778;47.966;7.854;2024-02-21T03:37:05;5.60;99.90
3528;DHT22;1778;47.966;7.854;2024-02-21T03:38:06;5.60;99.90
3528;DHT22;1778;47.966;7.854;2024-02-21T03:39:09;5.60;99.90
3528;DHT22;1778;47.966;7.854;2024-02-21T03:40:11;5.50;99.90
3528;DHT22;1778;47.966;7.854;2024-02-21T03:41:13;5.50;99.90
3528;DHT22;1778;47.966;7.854;2024-02-21T03:42:14;5.50;99.90
3528;DHT22;1778;47.966;7.854;2024-02-21T03:43:16;5.50;99.90
3528;DHT22;1778;47.966;7.854;2024-02-21T03:44:17;5.50;99.90
3528;DHT22;1778;47.966;7.854;2024-02-21T03:45:19;5.40;99.90
3528;DHT22;1778;47.966;7.854;2024-02-21T03:46:21;5.40;99.90
3528;DHT22;1778;47.966;7.854;2024-02-21T03:47:23;5.50;99.90
3528;DHT22;1778;47.966;7.854;2024-02-21T03:48:24;5.50;99.90
3528;DHT22;1778;47.966;7.854;2024-02-21T03:49:26;5.60;99.90
3528;DHT22;1778;47.966;7.854;2024-02-21T03:50:27;5.50;99.90
3528;DHT22;1778;47.966;7.854;2024-02-21T03:51:29;5.60;99.90
3528;DHT22;1778;47.966;7.854;2024-02-21T03:52:30;5.50;99.90
3528;DHT22;1778;47.966;7.854;2024-02-21T03:53:32;5.50;99.90
3528;DHT22;1778;47.966;7.854;2024-02-21T03:54:33;5.40;99.90
3528;DHT22;1778;47.966;7.854;2024-02-21T03:55:35;5.50;99.90
3528;DHT22;1778;47.966;7.854;2024-02-21T03:56:37;5.40;99.90
3528;DHT22;1778;47.966;7.854;2024-02-21T03:57:40;5.40;99.90
3528;DHT22;1778;47.966;7.854;2024-02-21T03:58:42;5.40;99.90
3528;DHT22;1778;47.966;7.854;2024-02-21T03:59:44;5.40;99.90
3528;DHT22;1778;47.966;7.854;2024-02-21T04:00:45;5.30;99.90
3528;DHT22;1778;47.966;7.854;2024-02-21T04:01:47;5.30;99.90
3528;DHT22;1778;47.966;7.854;2024-02-21T04:02:48;5.30;99.90
3528;DHT22;1778;47.966;7.854;2024-02-21T04:03:50;5.30;99.90
3528;DHT22;1778;47.966;7.854;2024-02-21T04:04:51;5.30;99.90
3528;DHT22;1778;47.966;7.854;2024-02-21T04:05:53;5.30;99.90
3528;DHT22;1778;47.966;7.854;2024-02-21T04:06:54;5.30;99.90
3528;DHT22;1778;47.966;7.854;2024-02-21T04:07:55;5.30;99.90
3528;DHT22;1778;47.966;7.854;2024-02-21T04:08:58;5.30;99.90
3528;DHT22;1778;47.966;7.854;2024-02-21T04:09:59;5.20;99.90
3528;DHT22;1778;47.966;7.854;2024-02-21T04:11:01;5.20;99.90
3528;DHT22;1778;47.966;7.854;2024-02-21T04:12:03;5.20;99.90
3528;DHT22;1778;47.966;7.854;2024-02-21T04:13:06;5.20;99.90
3528;DHT22;1778;47.966;7.854;2024-02-21T04:14:07;5.20;99.90
3528;DHT22;1778;47.966;7.854;2024-02-21T04:15:09;5.20;99.90
3528;DHT22;1778;47.966;7.854;2024-02-21T04:16:11;5.20;99.90
3528;DHT22;1778;47.966;7.854;2024-02-21T04:17:13;5.20;99.90
3528;DHT22;1778;47.966;7.854;2024-02-21T04:18:14;5.10;99.90
3528;DHT22;1778;47.966;7.854;2024-02-21T04:19:16;5.20;99.90
3528;DHT22;1778;47.966;7.854;2024-02-21T04:20:18;5.10;99.90
3528;DHT22;1778;47.966;7.854;2024-02-21T04:21:20;5.10;99.90
3528;DHT22;1778;47.966;7.854;2024-02-21T04:22:24;5.20;99.90
3528;DHT22;1778;47.966;7.854;2024-02-21T04:23:25;5.10;99.90
3528;DHT22;1778;47.966;7.854;2024-02-21T04:24:27;5.10;99.90
3528;DHT22;1778;47.966;7.854;2024-02-21T04:25:28;5.00;99.90
3528;DHT22;1778;47.966;7.854;2024-02-21T04:26:30;5.00;99.90
3528;DHT22;1778;47.966;7.854;2024-02-21T04:27:31;5.00;99.90
3528;DHT22;1778;47.966;7.854;2024-02-21T04:28:33;4.90;99.90
3528;DHT22;1778;47.966;7.854;2024-02-21T04:29:34;4.90;99.90
3528;DHT22;1778;47.966;7.854;2024-02-21T04:30:36;4.90;99.90
3528;DHT22;1778;47.966;7.854;2024-02-21T04:31:37;4.90;99.90
3528;DHT22;1778;47.966;7.854;2024-02-21T04:32:40;4.90;99.90
3528;DHT22;1778;47.966;7.854;2024-02-21T04:33:42;4.90;99.90
3528;DHT22;1778;47.966;7.854;2024-02-21T04:34:43;4.90;99.90
3528;DHT22;1778;47.966;7.854;2024-02-21T04:35:44;4.90;99.90
3528;DHT22;1778;47.966;7.854;2024-02-21T04:36:46;4.90;99.90
3528;DHT22;1778;47.966;7.854;2024-02-21T04:37:49;4.80;99.90
3528;DHT22;1778;47.966;7.854;2024-02-21T04:38:51;4.80;99.90
3528;DHT22;1778;47.966;7.854;2024-02-21T04:39:52;4.80;99.90
3528;DHT22;1778;47.966;7.854;2024-02-21T04:40:55;4.80;99.90
3528;DHT22;1778;47.966;7.854;2024-02-21T04:41:59;4.70;99.90
3528;DHT22;1778;47.966;7.854;2024-02-21T04:43:01;4.70;99.90
3528;DHT22;1778;47.966;7.854;2024-02-21T04:44:02;4.70;99.90
3528;DHT22;1778;47.966;7.854;2024-02-21T04:45:05;4.60;99.90
3528;DHT22;1778;47.966;7.854;2024-02-21T04:46:07;4.60;99.90
3528;DHT22;1778;47.966;7.854;2024-02-21T04:47:08;4.50;99.90
3528;DHT22;1778;47.966;7.854;2024-02-21T04:48:10;4.50;99.90
3528;DHT22;1778;47.966;7.854;2024-02-21T04:49:11;4.50;99.90
3528;DHT22;1778;47.966;7.854;2024-02-21T04:50:13;4.50;99.90
3528;DHT22;1778;47.966;7.854;2024-02-21T04:51:15;4.50;99.90
3528;DHT22;1778;47.966;7.854;2024-02-21T04:52:16;4.50;99.90
3528;DHT22;1778;47.966;7.854;2024-02-21T04:53:18;4.50;99.90
3528;DHT22;1778;47.966;7.854;2024-02-21T04:54:19;4.40;99.90
3528;DHT22;1778;47.966;7.854;2024-02-21T04:55:21;4.40;99.90
3528;DHT22;1778;47.966;7.854;2024-02-21T04:56:22;4.40;99.90
3528;DHT22;1778;47.966;7.854;2024-02-21T04:57:24;4.40;99.90
3528;DHT22;1778;47.966;7.854;2024-02-21T04:58:26;4.30;99.90
3528;DHT22;1778;47.966;7.854;2024-02-21T04:59:28;4.30;99.90
3528;DHT22;1778;47.966;7.854;2024-02-21T05:00:30;4.30;99.90
3528;DHT22;1778;47.966;7.854;2024-02-21T05:01:32;4.30;99.90
3528;DHT22;1778;47.966;7.854;2024-02-21T05:02:33;4.30;99.90
3528;DHT22;1778;47.966;7.854;2024-02-21T05:03:35;4.30;99.90
3528;DHT22;1778;47.966;7.854;2024-02-21T05:04:36;4.30;99.90
3528;DHT22;1778;47.966;7.854;2024-02-21T05:05:39;4.30;99.90
3528;DHT22;1778;47.966;7.854;2024-02-21T05:06:42;4.40;99.90
3528;DHT22;1778;47.966;7.854;2024-02-21T05:07:43;4.40;99.90
3528;DHT22;1778;47.966;7.854;2024-02-21T05:08:44;4.40;99.90
3528;DHT22;1778;47.966;7.854;2024-02-21T05:09:46;4.40;99.90
3528;DHT22;1778;47.966;7.854;2024-02-21T05:10:47;4.30;99.90
3528;DHT22;1778;47.966;7.854;2024-02-21T05:11:49;4.40;99.90
3528;DHT22;1778;47.966;7.854;2024-02-21T05:12:50;4.30;99.90
3528;DHT22;1778;47.966;7.854;2024-02-21T05:13:52;4.30;99.90
3528;DHT22;1778;47.966;7.854;2024-02-21T05:14:54;4.40;99.90
3528;DHT22;1778;47.966;7.854;2024-02-21T05:15:55;4.40;99.90
3528;DHT22;1778;47.966;7.854;2024-02-21T05:16:56;4.40;99.90
3528;DHT22;1778;47.966;7.854;2024-02-21T05:17:58;4.30;99.90
3528;DHT22;1778;47.966;7.854;2024-02-21T05:19:00;4.30;99.90
3528;DHT22;1778;47.966;7.854;2024-02-21T05:20:01;4.30;99.90
3528;DHT22;1778;47.966;7.854;2024-02-21T05:21:03;4.30;99.90
3528;DHT22;1778;47.966;7.854;2024-02-21T05:22:05;4.30;99.90
3528;DHT22;1778;47.966;7.854;2024-02-21T05:23:07;4.20;99.90
3528;DHT22;1778;47.966;7.854;2024-02-21T05:24:12;4.20;99.90
3528;DHT22;1778;47.966;7.854;2024-02-21T05:25:14;4.20;99.90
3528;DHT22;1778;47.966;7.854;2024-02-21T05:26:23;4.20;99.90
3528;DHT22;1778;47.966;7.854;2024-02-21T05:27:25;4.20;99.90
3528;DHT22;1778;47.966;7.854;2024-02-21T05:28:26;4.20;99.90
3528;DHT22;1778;47.966;7.854;2024-02-21T05:29:27;4.10;99.90
3528;DHT22;1778;47.966;7.854;2024-02-21T05:30:29;4.10;99.90
3528;DHT22;1778;47.966;7.854;2024-02-21T05:32:53;4.00;99.90
3528;DHT22;1778;47.966;7.854;2024-02-21T05:33:56;4.00;99.90
3528;DHT22;1778;47.966;7.854;2024-02-21T05:35:02;4.00;99.90
3528;DHT22;1778;47.966;7.854;2024-02-21T05:36:04;4.10;99.90
3528;DHT22;1778;47.966;7.854;2024-02-21T05:37:05;4.00;99.90
3528;DHT22;1778;47.966;7.854;2024-02-21T05:38:07;4.00;99.90
3528;DHT22;1778;47.966;7.854;2024-02-21T05:39:13;3.90;99.90
3528;DHT22;1778;47.966;7.854;2024-02-21T05:40:16;4.00;99.90
3528;DHT22;1778;47.966;7.854;2024-02-21T05:41:17;3.90;99.90
3528;DHT22;1778;47.966;7.854;2024-02-21T05:42:19;3.90;99.90
3528;DHT22;1778;47.966;7.854;2024-02-21T05:43:20;3.90;99.90
3528;DHT22;1778;47.966;7.854;2024-02-21T05:44:22;3.90;99.90
3528;DHT22;1778;47.966;7.854;2024-02-21T05:45:24;3.90;99.90
3528;DHT22;1778;47.966;7.854;2024-02-21T05:46:25;3.90;99.90
3528;DHT22;1778;47.966;7.854;2024-02-21T05:47:27;3.90;99.90
3528;DHT22;1778;47.966;7.854;2024-02-21T05:48:28;4.00;99.90
3528;DHT22;1778;47.966;7.854;2024-02-21T05:49:30;4.00;99.90
3528;DHT22;1778;47.966;7.854;2024-02-21T05:50:32;4.00;99.90
3528;DHT22;1778;47.966;7.854;2024-02-21T05:51:34;4.00;99.90
3528;DHT22;1778;47.966;7.854;2024-02-21T05:52:36;4.00;99.90
3528;DHT22;1778;47.966;7.854;2024-02-21T05:53:37;4.00;99.90
3528;DHT22;1778;47.966;7.854;2024-02-21T05:54:42;4.00;99.90
3528;DHT22;1778;47.966;7.854;2024-02-21T05:55:44;4.00;99.90
3528;DHT22;1778;47.966;7.854;2024-02-21T05:56:46;3.90;99.90
3528;DHT22;1778;47.966;7.854;2024-02-21T05:57:48;4.00;99.90
3528;DHT22;1778;47.966;7.854;2024-02-21T05:58:50;4.00;99.90
3528;DHT22;1778;47.966;7.854;2024-02-21T05:59:52;4.00;99.90
3528;DHT22;1778;47.966;7.854;2024-02-21T06:00:53;4.00;99.90
3528;DHT22;1778;47.966;7.854;2024-02-21T06:01:58;4.00;99.90
3528;DHT22;1778;47.966;7.854;2024-02-21T06:03:02;4.00;99.90
3528;DHT22;1778;47.966;7.854;2024-02-21T06:04:04;4.00;99.90
3528;DHT22;1778;47.966;7.854;2024-02-21T06:05:06;4.00;99.90
3528;DHT22;1778;47.966;7.854;2024-02-21T06:06:11;4.00;99.90
3528;DHT22;1778;47.966;7.854;2024-02-21T06:07:12;4.00;99.90
3528;DHT22;1778;47.966;7.854;2024-02-21T06:08:14;4.00;99.90
3528;DHT22;1778;47.966;7.854;2024-02-21T06:09:16;4.00;99.90
3528;DHT22;1778;47.966;7.854;2024-02-21T06:10:17;4.00;99.90
3528;DHT22;1778;47.966;7.854;2024-02-21T06:11:19;4.00;99.90
3528;DHT22;1778;47.966;7.854;2024-02-21T06:12:20;3.90;99.90
3528;DHT22;1778;47.966;7.854;2024-02-21T06:13:23;4.00;99.90
3528;DHT22;1778;47.966;7.854;2024-02-21T06:14:25;4.00;99.90
3528;DHT22;1778;47.966;7.854;2024-02-21T06:15:26;4.00;99.90
3528;DHT22;1778;47.966;7.854;2024-02-21T06:16:28;4.00;99.90
3528;DHT22;1778;47.966;7.854;2024-02-21T06:17:29;4.00;99.90
3528;DHT22;1778;47.966;7.854;2024-02-21T06:18:32;3.90;99.90
3528;DHT22;1778;47.966;7.854;2024-02-21T06:19:34;4.00;99.90
3528;DHT22;1778;47.966;7.854;2024-02-21T06:20:36;4.00;99.90
3528;DHT22;1778;47.966;7.854;2024-02-21T06:21:40;4.00;99.90
3528;DHT22;1778;47.966;7.854;2024-02-21T06:22:41;4.00;99.90
3528;DHT22;1778;47.966;7.854;2024-02-21T06:23:43;3.90;99.90
3528;DHT22;1778;47.966;7.854;2024-02-21T06:24:44;4.00;99.90
3528;DHT22;1778;47.966;7.854;2024-02-21T06:25:46;3.90;99.90
3528;DHT22;1778;47.966;7.854;2024-02-21T06:26:49;3.90;99.90
3528;DHT22;1778;47.966;7.854;2024-02-21T06:27:50;4.00;99.90
3528;DHT22;1778;47.966;7.854;2024-02-21T06:28:51;4.00;99.90
3528;DHT22;1778;47.966;7.854;2024-02-21T06:29:53;4.00;99.90
3528;DHT22;1778;47.966;7.854;2024-02-21T06:30:54;4.00;99.90
3528;DHT22;1778;47.966;7.854;2024-02-21T06:31:56;3.90;99.90
3528;DHT22;1778;47.966;7.854;2024-02-21T06:32:57;3.90;99.90
3528;DHT22;1778;47.966;7.854;2024-02-21T06:34:00;3.90;99.90
3528;DHT22;1778;47.966;7.854;2024-02-21T06:35:02;3.90;99.90
3528;DHT22;1778;47.966;7.854;2024-02-21T06:36:04;3.80;99.90
3528;DHT22;1778;47.966;7.854;2024-02-21T06:37:05;3.80;99.90
3528;DHT22;1778;47.966;7.854;2024-02-21T06:38:06;3.90;99.90
3528;DHT22;1778;47.966;7.854;2024-02-21T06:39:08;3.90;99.90
3528;DHT22;1778;47.966;7.854;2024-02-21T06:40:10;3.90;99.90
3528;DHT22;1778;47.966;7.854;2024-02-21T06:41:20;4.00;99.90
3528;DHT22;1778;47.966;7.854;2024-02-21T06:42:24;4.00;99.90
3528;DHT22;1778;47.966;7.854;2024-02-21T06:43:26;3.90;99.90
3528;DHT22;1778;47.966;7.854;2024-02-21T06:44:27;3.90;99.90
3528;DHT22;1778;47.966;7.854;2024-02-21T06:45:29;3.90;99.90
3528;DHT22;1778;47.966;7.854;2024-02-21T06:46:31;3.90;99.90
3528;DHT22;1778;47.966;7.854;2024-02-21T06:47:37;3.90;99.90
3528;DHT22;1778;47.966;7.854;2024-02-21T06:48:38;4.00;99.90
3528;DHT22;1778;47.966;7.854;2024-02-21T06:49:42;3.90;99.90
3528;DHT22;1778;47.966;7.854;2024-02-21T06:50:44;4.00;99.90
3528;DHT22;1778;47.966;7.854;2024-02-21T06:51:45;4.00;99.90
3528;DHT22;1778;47.966;7.854;2024-02-21T06:52:47;4.00;99.90